Terminal Aerodrome Forecast
Issued by NWS

Home | Current Version | Previous Version | Graphics & Text | Print | Product List | Glossary On
Versions: 1 2 3 4 5 6 7 8 9 10 11 12 13 14 15 16 17 18 19 20 21
000
FTUS43 KICT 300002 AAA
TAFRSL
TAF AMD
KRSL 300002Z 3000/3024 16007KT P6SM VCTS SCT040CB
      TEMPO 3000/3002 18020G25KT -TSRA BKN050CB
     FM300200 17007KT P6SM SCT040 BKN250
     FM301800 18013KT P6SM BKN250=

USA.gov is the U.S. government's official web portal to all federal, state and local government web resources and services.